Terminal Aerodrome Forecast
Issued by NWS Sterling, VA

Home | Current Version | Previous Version | Text Only | Print | Product List | Glossary On
Versions: 1 2 3 4 5 6 7 8 9 10 11 12 13 14 15 16 17 18 19
329
FTUS41 KLWX 212333
TAFBWI
TAF
KBWI 212333Z 2200/2306 16004KT P6SM SCT060
     FM220200 VRB03KT P6SM BKN150
     FM221100 35004KT P6SM BKN050
     FM222000 24006KT P6SM BKN050
     FM230000 22005KT P6SM -SHRA VCTS BKN050CB=

USA.gov is the U.S. government's official web portal to all federal, state and local government web resources and services.